Time;durP1;ratioP1;P1;durP2;ratioP2;P2;SDS_P1;SDS_P2;PMS_P1;PMS_P2;Temp;Humidity;BMP_temperature;BMP_pressure;BME280_temperature;BME280_humidity;BME280_pressure;Samples;Min_cycle;Max_cycle;Signal;HPM_P1;HPM_P2
2022/05/24 00:00:21;;;;;;;5.70;3.27;;;17.50;99.90;;;;;;5041884;28;20434;-81
2022/05/24 00:03:07;;;;;;;7.97;3.40;;;17.50;99.90;;;;;;5014684;28;20409;-80
2022/05/24 00:05:52;;;;;;;10.53;3.17;;;17.50;99.90;;;;;;5028005;28;20487;-81
2022/05/24 00:08:37;;;;;;;7.33;2.93;;;17.50;99.90;;;;;;5028829;28;20438;-81
2022/05/24 00:11:22;;;;;;;3.90;2.97;;;17.50;99.90;;;;;;5033155;28;20394;-82
2022/05/24 00:14:06;;;;;;;5.30;2.83;;;17.40;99.90;;;;;;5033809;28;20430;-78
2022/05/24 00:16:51;;;;;;;8.30;3.33;;;17.50;99.90;;;;;;5019103;28;20387;-81
2022/05/24 00:19:36;;;;;;;3.73;2.77;;;17.40;99.90;;;;;;5048328;28;20485;-78
2022/05/24 00:22:20;;;;;;;4.97;4.57;;;17.50;99.90;;;;;;5033843;28;20391;-77
2022/05/24 00:25:06;;;;;;;4.87;2.57;;;17.40;99.90;;;;;;5041817;28;20405;-80
2022/05/24 00:27:52;;;;;;;11.63;3.83;;;17.40;99.90;;;;;;5050713;28;20898;-81
2022/05/24 00:30:38;;;;;;;3.97;3.27;;;17.40;99.90;;;;;;5034439;28;20461;-81
2022/05/24 00:33:25;;;;;;;3.50;3.20;;;17.30;99.90;;;;;;5035528;28;20779;-81
2022/05/24 00:36:10;;;;;;;3.07;2.43;;;17.20;99.90;;;;;;5049777;28;20390;-82
2022/05/24 00:38:55;;;;;;;3.07;2.77;;;17.30;99.90;;;;;;5022615;28;20548;-81
2022/05/24 00:41:44;;;;;;;6.40;2.63;;;17.20;99.90;;;;;;5022558;28;20754;-81
2022/05/24 00:44:35;;;;;;;5.03;3.43;;;17.20;99.90;;;;;;5022529;28;20391;-81
2022/05/24 00:47:32;;;;;;;5.43;4.00;;;17.00;99.90;;;;;;4993670;28;20443;-81
2022/05/24 00:50:23;;;;;;;3.40;2.80;;;17.10;99.90;;;;;;4995284;28;20435;-80
2022/05/24 00:53:26;;;;;;;4.17;3.70;;;17.20;99.90;;;;;;5016300;28;20404;-78
2022/05/24 00:56:18;;;;;;;4.50;2.83;;;17.10;99.90;;;;;;5003893;28;20596;-77
2022/05/24 00:59:06;;;;;;;3.57;2.87;;;17.10;99.90;;;;;;5015676;28;20416;-78
2022/05/24 01:01:50;;;;;;;9.40;3.07;;;17.00;99.90;;;;;;5028524;28;20411;-77
2022/05/24 01:04:35;;;;;;;6.30;3.93;;;17.00;99.90;;;;;;5002156;28;20415;-77
2022/05/24 01:07:19;;;;;;;4.20;3.17;;;16.90;99.90;;;;;;5017684;28;20451;-80
2022/05/24 01:10:09;;;;;;;3.53;2.77;;;17.00;99.90;;;;;;5018153;28;20501;-81
2022/05/24 01:13:08;;;;;;;6.43;3.50;;;17.10;99.90;;;;;;5049902;28;20398;-81
2022/05/24 01:15:53;;;;;;;4.30;3.90;;;17.20;99.90;;;;;;5051677;28;20917;-82
2022/05/24 01:18:38;;;;;;;3.67;3.37;;;17.20;99.90;;;;;;5049692;28;20414;-81
2022/05/24 01:21:24;;;;;;;5.77;3.80;;;17.30;99.90;;;;;;5050097;28;20385;-81
2022/05/24 01:24:26;;;;;;;12.77;3.63;;;17.30;99.90;;;;;;5050174;28;20410;-81
2022/05/24 01:27:11;;;;;;;8.50;3.20;;;17.20;99.90;;;;;;5036976;28;20390;-80
2022/05/24 01:29:55;;;;;;;3.40;3.07;;;17.30;99.90;;;;;;5035832;28;20929;-81
2022/05/24 01:38:43;;;;;;;3.10;2.80;;;17.30;99.90;;;;;;5056489;28;20409;-82
2022/05/24 01:41:42;;;;;;;4.53;2.97;;;17.40;99.90;;;;;;5046982;28;20390;-81
2022/05/24 01:44:35;;;;;;;4.83;3.00;;;17.30;99.90;;;;;;5047232;28;20473;-82
2022/05/24 01:47:22;;;;;;;5.00;4.10;;;17.10;99.90;;;;;;5047529;28;20378;-81
2022/05/24 01:50:13;;;;;;;4.43;4.10;;;17.20;99.90;;;;;;5026339;28;20572;-81
2022/05/24 01:53:05;;;;;;;3.63;2.80;;;17.10;99.90;;;;;;5000739;28;20504;-81
2022/05/24 01:55:55;;;;;;;4.70;3.60;;;17.00;99.90;;;;;;4973541;28;20421;-81
2022/05/24 01:58:42;;;;;;;7.33;3.60;;;16.90;99.90;;;;;;4986815;28;20769;-81
2022/05/24 02:01:37;;;;;;;5.73;3.67;;;17.10;99.90;;;;;;4986603;28;20452;-81
2022/05/24 02:04:23;;;;;;;7.43;3.77;;;17.10;99.90;;;;;;4989728;28;20413;-80
2022/05/24 02:07:15;;;;;;;4.27;3.80;;;17.00;99.90;;;;;;5017812;28;20480;-79
2022/05/24 02:10:01;;;;;;;4.90;3.33;;;17.00;99.90;;;;;;4991418;28;20492;-80
2022/05/24 02:12:51;;;;;;;7.20;3.17;;;17.10;99.90;;;;;;4990051;28;20452;-81
2022/05/24 02:15:40;;;;;;;6.33;3.90;;;17.20;99.90;;;;;;4975301;28;20459;-81
2022/05/24 02:18:27;;;;;;;4.53;2.97;;;17.20;99.90;;;;;;5001293;28;20432;-81
2022/05/24 02:21:12;;;;;;;3.20;2.90;;;17.20;99.90;;;;;;4986875;28;20471;-81
2022/05/24 02:23:56;;;;;;;4.13;3.77;;;17.20;99.90;;;;;;5046874;28;20482;-81
2022/05/24 02:26:41;;;;;;;4.60;3.67;;;17.20;99.90;;;;;;5047269;28;20385;-81
2022/05/24 02:29:26;;;;;;;6.73;4.40;;;17.20;99.90;;;;;;5061147;28;20445;-82
2022/05/24 02:32:12;;;;;;;5.80;4.53;;;17.20;99.90;;;;;;5047289;28;20389;-81
2022/05/24 02:34:56;;;;;;;9.00;3.93;;;17.20;99.90;;;;;;5061815;28;20393;-81
2022/05/24 02:37:41;;;;;;;5.60;2.80;;;17.30;99.90;;;;;;5046840;28;20386;-81
2022/05/24 02:43:20;;;;;;;3.80;3.10;;;17.20;99.90;;;;;;5035843;28;20410;-81
2022/05/24 02:46:06;;;;;;;4.93;3.43;;;17.30;99.90;;;;;;5046423;28;20400;-81
2022/05/24 02:48:50;;;;;;;4.47;4.03;;;17.10;99.90;;;;;;5018810;28;20385;-82
2022/05/24 02:51:37;;;;;;;4.17;3.87;;;17.10;99.90;;;;;;5005509;28;20412;-81
2022/05/24 02:54:21;;;;;;;3.70;3.33;;;17.10;99.90;;;;;;4991335;28;20403;-81
2022/05/24 02:57:06;;;;;;;3.60;3.23;;;17.10;99.90;;;;;;5005779;28;20432;-80
2022/05/24 02:59:50;;;;;;;4.60;3.40;;;17.10;99.90;;;;;;5005837;28;20391;-81
2022/05/24 03:02:38;;;;;;;7.80;4.10;;;17.10;99.90;;;;;;5006481;28;20459;-81
2022/05/24 03:05:24;;;;;;;7.93;3.37;;;17.20;99.90;;;;;;5005239;28;20435;-81
2022/05/24 03:11:06;;;;;;;5.60;3.70;;;17.30;99.90;;;;;;5006290;28;20400;-81
2022/05/24 03:16:54;;;;;;;6.00;3.63;;;17.60;99.90;;;;;;5007559;28;20399;-81
2022/05/24 03:19:39;;;;;;;4.00;3.70;;;17.60;99.90;;;;;;5004434;28;20388;-82
2022/05/24 03:22:25;;;;;;;8.60;3.83;;;17.70;99.90;;;;;;5002562;28;20422;-82
2022/05/24 03:25:12;;;;;;;3.80;3.43;;;17.80;99.90;;;;;;4998155;28;20391;-83
2022/05/24 03:27:58;;;;;;;5.43;2.90;;;17.80;99.90;;;;;;5025141;28;20391;-81
2022/05/24 03:30:44;;;;;;;5.53;3.90;;;17.90;99.90;;;;;;4998453;28;20457;-80
2022/05/24 03:33:29;;;;;;;3.60;3.20;;;17.80;99.90;;;;;;5025345;28;20391;-81
2022/05/24 03:36:13;;;;;;;3.50;3.20;;;17.50;99.90;;;;;;5040560;28;20386;-82
2022/05/24 03:38:59;;;;;;;3.23;2.93;;;17.20;99.90;;;;;;5011682;28;20399;-81
2022/05/24 03:41:46;;;;;;;3.93;3.37;;;17.20;99.90;;;;;;5025454;28;20391;-81
2022/05/24 03:44:30;;;;;;;3.77;3.47;;;17.00;99.90;;;;;;5012104;28;20504;-80
2022/05/24 03:47:15;;;;;;;4.00;3.60;;;17.00;99.90;;;;;;5029646;28;20433;-80
2022/05/24 03:49:59;;;;;;;6.60;3.80;;;17.10;99.90;;;;;;5025108;28;20446;-80
2022/05/24 03:52:45;;;;;;;8.53;3.63;;;17.20;99.90;;;;;;5024966;28;20414;-81
2022/05/24 03:55:30;;;;;;;6.17;2.53;;;17.30;99.90;;;;;;5025938;28;20441;-80
2022/05/24 03:58:15;;;;;;;4.13;3.77;;;17.40;99.90;;;;;;5026491;28;20748;-81
2022/05/24 04:00:59;;;;;;;3.90;3.60;;;17.50;99.90;;;;;;5011551;28;20495;-81
2022/05/24 04:03:44;;;;;;;6.53;3.20;;;17.60;99.90;;;;;;5018806;28;20419;-81
2022/05/24 04:06:28;;;;;;;5.50;4.00;;;17.70;99.90;;;;;;5047686;28;20802;-78
2022/05/24 04:09:12;;;;;;;3.97;3.30;;;17.80;99.90;;;;;;5037135;28;20813;-78
2022/05/24 04:11:57;;;;;;;4.57;3.53;;;17.80;99.90;;;;;;4999676;28;20440;-82
2022/05/24 04:14:41;;;;;;;4.23;2.90;;;17.70;99.90;;;;;;4998370;28;20854;-81
2022/05/24 04:17:26;;;;;;;3.20;2.90;;;17.50;99.90;;;;;;4994319;28;20501;-81
2022/05/24 04:20:11;;;;;;;3.70;3.40;;;17.30;99.90;;;;;;4977539;28;20465;-81
2022/05/24 04:22:58;;;;;;;4.57;3.40;;;17.40;99.90;;;;;;4985653;28;20472;-81
2022/05/24 04:25:42;;;;;;;4.27;3.87;;;17.50;99.90;;;;;;4994127;28;20447;-82
2022/05/24 04:28:27;;;;;;;6.77;3.60;;;17.50;99.90;;;;;;4992048;28;20432;-82
2022/05/24 04:31:13;;;;;;;5.10;3.90;;;17.30;99.90;;;;;;4974461;28;20477;-81
2022/05/24 04:33:57;;;;;;;3.70;3.20;;;17.20;99.90;;;;;;4982352;28;20507;-81
2022/05/24 04:36:42;;;;;;;5.23;3.10;;;17.20;99.90;;;;;;4973913;28;20400;-82
2022/05/24 04:39:26;;;;;;;4.10;3.70;;;17.50;99.90;;;;;;4930410;29;20443;-81
2022/05/24 04:42:19;;;;;;;4.17;3.53;;;17.60;99.90;;;;;;4958192;28;20406;-79
2022/05/24 04:45:07;;;;;;;3.60;3.03;;;17.80;99.90;;;;;;4987311;28;20426;-79
2022/05/24 04:47:51;;;;;;;4.03;2.67;;;17.70;99.90;;;;;;4985804;28;20401;-78
2022/05/24 04:50:38;;;;;;;3.23;3.03;;;17.30;99.90;;;;;;4973644;28;20534;-77
2022/05/24 04:53:26;;;;;;;4.40;3.63;;;17.40;99.90;;;;;;4986850;28;20433;-78
2022/05/24 04:56:10;;;;;;;4.03;2.50;;;17.30;99.90;;;;;;4962252;28;20421;-79
2022/05/24 04:58:55;;;;;;;5.93;2.80;;;17.40;99.90;;;;;;4960763;28;20440;-79
2022/05/24 05:01:40;;;;;;;4.43;2.83;;;17.60;99.90;;;;;;4994436;28;20485;-78
2022/05/24 05:04:27;;;;;;;5.83;2.97;;;17.80;99.90;;;;;;5006783;28;20949;-78
2022/05/24 05:07:13;;;;;;;3.10;2.77;;;18.00;99.90;;;;;;5008897;28;20452;-81
2022/05/24 05:09:58;;;;;;;3.33;2.73;;;17.70;99.90;;;;;;5027482;28;20472;-77
2022/05/24 05:12:45;;;;;;;2.50;2.30;;;17.80;99.90;;;;;;5049776;28;20426;-78
2022/05/24 05:15:34;;;;;;;2.70;2.10;;;17.90;99.90;;;;;;5036802;28;20413;-79
2022/05/24 05:18:20;;;;;;;4.03;2.40;;;18.10;99.90;;;;;;5040358;28;20434;-79
2022/05/24 05:21:06;;;;;;;3.13;2.83;;;17.80;99.90;;;;;;5069159;28;20702;-77
2022/05/24 05:23:52;;;;;;;3.43;3.13;;;17.30;99.90;;;;;;5061604;28;20426;-78
2022/05/24 05:26:36;;;;;;;4.20;2.20;;;17.30;99.90;;;;;;5067689;28;20497;-78
2022/05/24 05:31:16;;;;;;;3.37;2.40;;;17.50;99.90;;;;;;5059256;28;20476;-80
2022/05/24 05:32:30;;;;;;;2.50;2.30;;;17.60;99.90;;;;;;5065250;28;20456;-80
2022/05/24 05:35:16;;;;;;;4.60;2.60;;;17.70;99.90;;;;;;5036180;28;20494;-82
2022/05/24 05:38:01;;;;;;;3.47;3.17;;;17.60;99.90;;;;;;5009900;28;20462;-79
2022/05/24 05:40:47;;;;;;;3.37;3.03;;;17.70;99.90;;;;;;5010704;28;20427;-82
2022/05/24 05:43:32;;;;;;;2.40;2.20;;;17.80;99.90;;;;;;5021621;28;20580;-82
2022/05/24 05:46:19;;;;;;;3.27;3.07;;;17.60;99.90;;;;;;4981976;28;20831;-81
2022/05/24 05:49:24;;;;;;;4.33;3.10;;;17.90;99.90;;;;;;4958561;28;20494;-81
2022/05/24 05:52:09;;;;;;;3.10;2.90;;;17.90;99.90;;;;;;4907738;29;20467;-82
2022/05/24 05:54:55;;;;;;;3.27;2.97;;;18.00;99.90;;;;;;4943310;28;20475;-81
2022/05/24 05:57:40;;;;;;;3.30;3.00;;;18.20;99.90;;;;;;4928699;29;20423;-81
2022/05/24 06:00:27;;;;;;;6.03;5.63;;;17.90;99.90;;;;;;4900722;29;20458;-80
2022/05/24 06:03:12;;;;;;;5.97;4.13;;;17.90;99.90;;;;;;4929548;29;20491;-78
2022/05/24 06:06:00;;;;;;;4.07;3.27;;;18.10;99.90;;;;;;4943799;28;20474;-82
2022/05/24 06:08:44;;;;;;;4.23;3.93;;;18.00;99.90;;;;;;4873931;29;20544;-79
2022/05/24 06:11:29;;;;;;;4.00;3.70;;;18.10;99.90;;;;;;4876100;29;21057;-81
2022/05/24 06:14:14;;;;;;;7.23;3.97;;;18.40;99.90;;;;;;4895796;29;20489;-79
2022/05/24 06:17:00;;;;;;;4.37;4.07;;;18.20;99.90;;;;;;4912138;29;20497;-79
2022/05/24 06:19:45;;;;;;;6.07;5.53;;;18.20;99.90;;;;;;4921410;28;20538;-80
2022/05/24 06:22:29;;;;;;;4.17;3.87;;;18.00;99.90;;;;;;4946481;29;20891;-80
2022/05/24 06:25:14;;;;;;;5.00;4.53;;;17.90;99.90;;;;;;4956604;28;20526;-82
2022/05/24 06:28:00;;;;;;;4.43;4.03;;;17.80;99.90;;;;;;4958187;28;20568;-82
2022/05/24 06:30:47;;;;;;;4.03;3.73;;;17.80;99.90;;;;;;4945072;28;20728;-82
2022/05/24 06:33:32;;;;;;;4.10;3.80;;;17.90;99.90;;;;;;4950145;28;20466;-82
2022/05/24 06:36:17;;;;;;;3.90;3.57;;;17.90;99.90;;;;;;4970543;28;20842;-82
2022/05/24 06:39:02;;;;;;;3.70;3.40;;;18.10;99.90;;;;;;5011395;28;20500;-82
2022/05/24 06:41:47;;;;;;;5.77;4.00;;;18.00;99.90;;;;;;5027505;28;20538;-82
2022/05/24 06:44:32;;;;;;;6.53;3.53;;;18.10;99.90;;;;;;5021017;28;20472;-80
2022/05/24 06:47:17;;;;;;;4.67;4.20;;;17.90;99.90;;;;;;5028145;28;20457;-81
2022/05/24 06:50:02;;;;;;;4.20;3.80;;;18.00;99.90;;;;;;5020376;28;20462;-81
2022/05/24 06:52:51;;;;;;;4.70;4.30;;;18.10;99.90;;;;;;5014189;28;20442;-84
2022/05/24 06:55:37;;;;;;;3.67;3.37;;;18.20;99.90;;;;;;5036118;28;21114;-82
2022/05/24 06:58:22;;;;;;;3.70;3.40;;;18.20;99.90;;;;;;5020902;28;20518;-83
2022/05/24 07:04:09;;;;;;;6.32;4.47;;;18.20;99.90;;;;;;5024238;28;20476;-82
2022/05/24 07:06:54;;;;;;;4.33;3.93;;;18.50;99.90;;;;;;5019357;28;20808;-85
2022/05/24 07:09:40;;;;;;;4.77;4.20;;;18.80;99.90;;;;;;5006687;28;20474;-82
2022/05/24 07:12:26;;;;;;;5.90;5.20;;;18.60;99.90;;;;;;5016562;28;20450;-81
2022/05/24 07:15:11;;;;;;;5.80;4.27;;;18.90;99.90;;;;;;5017177;28;20514;-81
2022/05/24 07:17:57;;;;;;;3.90;3.60;;;19.10;99.90;;;;;;4999882;28;20462;-83
2022/05/24 07:20:43;;;;;;;3.73;3.43;;;18.80;99.90;;;;;;5015614;28;20425;-81
2022/05/24 07:23:27;;;;;;;4.43;3.40;;;18.60;99.90;;;;;;5033937;28;20465;-83
2022/05/24 07:26:17;;;;;;;4.20;3.77;;;18.70;99.90;;;;;;5027794;28;20434;-82
2022/05/24 07:29:01;;;;;;;6.03;3.40;;;18.80;99.90;;;;;;5045929;28;20428;-84
2022/05/24 07:31:46;;;;;;;2.43;2.33;;;18.80;99.90;;;;;;5037419;28;20442;-82
2022/05/24 07:34:32;;;;;;;3.27;3.07;;;18.70;99.90;;;;;;5049386;28;20467;-80
2022/05/24 07:37:18;;;;;;;2.80;2.60;;;19.20;99.90;;;;;;5041256;28;20467;-82
2022/05/24 07:46:10;;;;;;;3.17;2.97;;;18.90;99.90;;;;;;5047085;28;20424;-82
2022/05/24 07:48:55;;;;;;;2.53;2.37;;;18.70;99.90;;;;;;5022293;28;20496;-81
2022/05/24 07:51:41;;;;;;;7.63;2.83;;;18.80;99.90;;;;;;5028257;28;20456;-83
2022/05/24 07:54:26;;;;;;;2.43;2.23;;;19.20;99.90;;;;;;5035853;28;20850;-82
2022/05/24 07:57:11;;;;;;;3.00;1.90;;;19.40;99.90;;;;;;5052258;28;20452;-82
2022/05/24 07:59:55;;;;;;;2.30;2.10;;;19.50;99.90;;;;;;4990956;28;20452;-84
2022/05/24 08:02:40;;;;;;;2.07;1.97;;;19.70;99.90;;;;;;5000470;28;20502;-81
2022/05/24 08:05:25;;;;;;;4.40;1.93;;;19.80;99.90;;;;;;4982815;28;20501;-82
2022/05/24 08:08:10;;;;;;;1.80;1.70;;;19.60;99.90;;;;;;4985340;28;20436;-82
2022/05/24 08:10:54;;;;;;;5.83;2.47;;;19.20;99.90;;;;;;4998573;28;20458;-85
2022/05/24 08:13:38;;;;;;;1.77;1.67;;;18.80;99.90;;;;;;4986140;28;20435;-83
2022/05/24 08:16:23;;;;;;;2.40;2.20;;;19.00;99.90;;;;;;5003017;28;20428;-82
2022/05/24 08:19:09;;;;;;;1.87;1.77;;;19.50;99.90;;;;;;5007539;28;20436;-80
2022/05/24 08:21:55;;;;;;;2.50;2.30;;;19.90;99.90;;;;;;4990781;28;20442;-82
2022/05/24 08:24:40;;;;;;;5.30;2.23;;;20.30;99.90;;;;;;4989821;28;20451;-82
2022/05/24 08:27:24;;;;;;;2.27;2.07;;;20.40;99.90;;;;;;5005729;28;20450;-83
2022/05/24 08:30:12;;;;;;;1.47;1.37;;;19.80;99.90;;;;;;5013328;28;20482;-82
2022/05/24 08:32:57;;;;;;;2.63;2.00;;;19.40;99.90;;;;;;5063553;28;20437;-81
2022/05/24 08:35:43;;;;;;;1.80;1.67;;;19.80;99.90;;;;;;5060083;28;20452;-83
2022/05/24 08:38:28;;;;;;;2.20;2.00;;;19.70;99.90;;;;;;5063130;28;20453;-82
2022/05/24 08:41:32;;;;;;;3.47;1.90;;;19.40;99.90;;;;;;5071122;28;20437;-81
2022/05/24 08:50:44;;;;;;;1.93;1.83;;;20.10;99.90;;;;;;5060615;28;20469;-82
2022/05/24 08:53:36;;;;;;;2.37;2.17;;;20.10;99.90;;;;;;5065894;28;20437;-80
2022/05/24 08:56:28;;;;;;;2.20;2.10;;;19.90;99.90;;;;;;5049172;28;20480;-84
2022/05/24 08:59:23;;;;;;;1.80;1.70;;;20.00;99.90;;;;;;5048499;28;20433;-82
2022/05/24 09:02:08;;;;;;;2.10;1.90;;;20.00;99.90;;;;;;5058628;28;20427;-83
2022/05/24 09:04:52;;;;;;;2.97;2.77;;;19.90;99.90;;;;;;5038164;28;20460;-82
2022/05/24 09:07:51;;;;;;;2.27;1.80;;;19.70;99.90;;;;;;5041145;28;20612;-83
2022/05/24 09:10:53;;;;;;;5.07;1.97;;;19.70;99.90;;;;;;5038756;28;20531;-81
2022/05/24 09:14:10;;;;;;;2.73;1.70;;;19.60;99.90;;;;;;5045939;28;20434;-85
2022/05/24 09:17:13;;;;;;;3.10;1.80;;;19.10;99.90;;;;;;5031008;28;20430;-84
2022/05/24 09:19:58;;;;;;;3.23;1.30;;;18.40;99.90;;;;;;4985523;28;20481;-83
2022/05/24 09:22:42;;;;;;;2.03;1.83;;;18.20;99.90;;;;;;4978127;28;20987;-85
2022/05/24 09:25:27;;;;;;;4.47;1.70;;;18.20;99.90;;;;;;4974344;28;20445;-83
2022/05/24 09:28:11;;;;;;;2.10;1.93;;;18.20;99.90;;;;;;4973052;28;20456;-84
2022/05/24 09:30:58;;;;;;;3.40;1.93;;;18.20;99.90;;;;;;4977544;28;20518;-83
2022/05/24 09:33:44;;;;;;;1.70;1.60;;;18.40;99.90;;;;;;4979851;28;20457;-83
2022/05/24 09:36:33;;;;;;;2.40;2.20;;;18.50;99.90;;;;;;4976875;28;20730;-83
2022/05/24 09:39:31;;;;;;;1.80;1.70;;;18.50;99.90;;;;;;4974207;28;20888;-83
2022/05/24 09:42:28;;;;;;;1.70;1.60;;;18.90;99.90;;;;;;4973150;28;20452;-84
2022/05/24 09:45:18;;;;;;;3.47;2.23;;;19.00;99.90;;;;;;4974826;28;20453;-84
2022/05/24 09:48:03;;;;;;;1.90;1.80;;;18.70;99.90;;;;;;4960090;28;20428;-85
2022/05/24 09:50:52;;;;;;;1.70;1.60;;;19.00;99.90;;;;;;4996910;28;20491;-83
2022/05/24 09:53:50;;;;;;;1.90;1.80;;;19.20;99.90;;;;;;5011851;28;20502;-83
2022/05/24 09:56:38;;;;;;;1.83;1.73;;;19.30;99.90;;;;;;5011562;28;20451;-85
2022/05/24 09:59:26;;;;;;;1.60;1.50;;;19.40;99.90;;;;;;5011396;28;20897;-83
2022/05/24 10:02:32;;;;;;;3.67;2.07;;;19.40;99.90;;;;;;5015245;28;20497;-82
2022/05/24 10:05:19;;;;;;;5.60;2.03;;;19.30;99.90;;;;;;5038293;28;20437;-82
2022/05/24 10:08:14;;;;;;;1.50;1.40;;;19.40;99.90;;;;;;5037303;28;20524;-83
2022/05/24 10:10:59;;;;;;;1.60;1.50;;;19.30;99.90;;;;;;5048514;28;20590;-83
2022/05/24 10:13:55;;;;;;;1.73;1.63;;;19.60;99.90;;;;;;5042130;28;20434;-82
2022/05/24 10:16:49;;;;;;;1.83;1.73;;;19.70;99.90;;;;;;5047116;28;20533;-82
2022/05/24 10:19:59;;;;;;;1.67;1.57;;;19.70;99.90;;;;;;5057019;28;20434;-81
2022/05/24 10:23:06;;;;;;;1.60;1.37;;;20.00;99.90;;;;;;5014087;28;20988;-83
2022/05/24 10:26:07;;;;;;;1.37;1.27;;;20.20;99.90;;;;;;5021122;28;20479;-81
2022/05/24 10:29:19;;;;;;;1.63;1.53;;;19.80;99.90;;;;;;4998194;28;20530;-82
2022/05/24 10:39:12;;;;;;;1.50;1.40;;;21.00;99.90;;;;;;4997854;28;20463;-81
2022/05/24 10:42:29;;;;;;;1.53;1.43;;;21.30;99.90;;;;;;5005355;28;20511;-82
2022/05/24 10:45:17;;;;;;;2.03;1.37;;;21.90;99.90;;;;;;4983287;28;20520;-83
2022/05/24 10:48:08;;;;;;;1.67;1.57;;;21.50;99.90;;;;;;5006511;28;20884;-82
2022/05/24 10:51:02;;;;;;;1.27;1.17;;;21.40;99.90;;;;;;5008479;28;20480;-81
2022/05/24 10:54:00;;;;;;;1.57;1.47;;;21.40;99.90;;;;;;5033368;28;20549;-81
2022/05/24 10:56:52;;;;;;;3.00;1.50;;;20.40;99.90;;;;;;5028243;28;20433;-82
2022/05/24 10:59:53;;;;;;;1.60;1.50;;;20.30;99.90;;;;;;5061529;28;20393;-82
2022/05/24 11:02:57;;;;;;;1.50;1.40;;;20.20;99.90;;;;;;5046444;28;20480;-84
2022/05/24 11:05:46;;;;;;;2.30;2.10;;;19.90;99.90;;;;;;5036123;28;20435;-83
2022/05/24 11:08:53;;;;;;;1.50;1.40;;;19.70;99.90;;;;;;5016622;28;20494;-81
2022/05/24 11:11:52;;;;;;;9.37;2.27;;;19.90;99.90;;;;;;5029083;28;20434;-82
2022/05/24 11:15:10;;;;;;;2.30;1.30;;;20.00;99.90;;;;;;5009246;28;20467;-83
2022/05/24 11:17:55;;;;;;;2.33;1.20;;;20.20;99.90;;;;;;5011101;28;20738;-82
2022/05/24 11:20:47;;;;;;;4.97;1.63;;;20.50;99.90;;;;;;4957840;28;20497;-83
2022/05/24 11:23:46;;;;;;;1.83;1.37;;;20.90;99.90;;;;;;4972302;28;20429;-85
2022/05/24 11:26:34;;;;;;;1.60;1.50;;;21.50;99.90;;;;;;4937279;29;20490;-83
2022/05/24 11:29:42;;;;;;;1.30;1.20;;;22.00;99.90;;;;;;4966425;28;20555;-83
2022/05/24 11:32:37;;;;;;;1.40;1.30;;;22.00;99.90;;;;;;4981976;28;20638;-81
2022/05/24 11:35:28;;;;;;;1.20;1.10;;;22.60;99.90;;;;;;4972941;28;20445;-84
2022/05/24 11:38:17;;;;;;;1.40;1.30;;;22.70;99.90;;;;;;4973065;28;20498;-82
2022/05/24 11:41:31;;;;;;;2.70;1.23;;;22.70;99.90;;;;;;4975417;28;20501;-83
2022/05/24 11:44:34;;;;;;;1.47;1.37;;;21.60;99.90;;;;;;4973385;28;20904;-84
2022/05/24 11:47:54;;;;;;;1.40;1.30;;;22.50;99.90;;;;;;5002857;28;20435;-83
2022/05/24 11:50:44;;;;;;;1.20;1.10;;;22.70;99.90;;;;;;5001004;28;20450;-80
2022/05/24 11:53:36;;;;;;;8.93;1.60;;;23.20;99.90;;;;;;5042369;28;20438;-83
2022/05/24 11:56:24;;;;;;;5.50;1.40;;;23.60;99.90;;;;;;5046205;28;20505;-83
2022/05/24 11:59:11;;;;;;;1.37;1.27;;;22.70;99.90;;;;;;5021974;28;20455;-83
2022/05/24 12:02:00;;;;;;;1.33;1.23;;;23.10;99.90;;;;;;5005309;28;20475;-84
2022/05/24 12:08:04;;;;;;;1.40;1.30;;;23.90;99.90;;;;;;5058387;28;20456;-82
2022/05/24 12:10:52;;;;;;;1.20;1.10;;;24.10;99.90;;;;;;5020014;28;20482;-85
2022/05/24 12:13:54;;;;;;;1.10;1.00;;;24.40;99.90;;;;;;5015523;28;20426;-83
2022/05/24 12:16:52;;;;;;;5.23;1.40;;;24.70;99.90;;;;;;5033516;28;20450;-84
2022/05/24 12:19:48;;;;;;;1.23;1.13;;;25.10;97.60;;;;;;5000148;28;20458;-81
2022/05/24 12:23:07;;;;;;;2.40;1.40;;;24.70;97.30;;;;;;5004422;28;20414;-81
2022/05/24 12:25:59;;;;;;;1.10;1.00;;;23.90;99.60;;;;;;5032962;28;20440;-82
2022/05/24 12:28:51;;;;;;;2.23;1.20;;;24.10;99.10;;;;;;5029485;28;20510;-82
2022/05/24 12:31:38;;;;;;;1.20;1.10;;;23.80;99.90;;;;;;5051158;28;20528;-82
2022/05/24 12:34:22;;;;;;;1.30;1.20;;;23.10;99.90;;;;;;5044992;28;20916;-78
2022/05/24 12:37:24;;;;;;;1.50;1.40;;;24.10;99.10;;;;;;5011927;28;20444;-80
2022/05/24 12:40:20;;;;;;;1.30;1.20;;;24.90;98.80;;;;;;5047697;28;20567;-80
2022/05/24 12:43:13;;;;;;;1.33;1.23;;;25.00;93.00;;;;;;5066283;28;20431;-82
2022/05/24 12:46:00;;;;;;;2.90;1.07;;;26.00;90.50;;;;;;5084200;28;20449;-83
2022/05/24 12:48:47;;;;;;;1.87;1.23;;;25.30;91.00;;;;;;5087497;28;20458;-82
2022/05/24 12:51:47;;;;;;;1.83;1.20;;;26.10;89.00;;;;;;5062078;28;20429;-84
2022/05/24 12:54:34;;;;;;;1.27;1.03;;;25.50;89.80;;;;;;5047886;28;20481;-84
2022/05/24 12:57:39;;;;;;;1.43;1.20;;;26.10;87.00;;;;;;5057825;28;20416;-82
2022/05/24 13:00:25;;;;;;;1.90;1.03;;;25.90;83.80;;;;;;5068743;28;20459;-85
2022/05/24 13:03:22;;;;;;;1.33;1.20;;;25.50;88.30;;;;;;5087311;28;20478;-84
2022/05/24 13:06:07;;;;;;;1.13;1.03;;;26.10;87.10;;;;;;5073201;28;20544;-81
2022/05/24 13:09:13;;;;;;;1.30;1.20;;;26.80;83.50;;;;;;5056475;28;20478;-84
2022/05/24 13:12:03;;;;;;;1.30;1.20;;;27.10;78.10;;;;;;5085249;28;20470;-84
2022/05/24 13:14:56;;;;;;;1.30;1.20;;;27.20;77.50;;;;;;5083619;28;20470;-83
2022/05/24 13:17:45;;;;;;;1.23;1.13;;;27.00;72.50;;;;;;5078525;28;20425;-82
2022/05/24 13:20:40;;;;;;;1.10;1.00;;;27.10;73.60;;;;;;5083488;28;20439;-82
2022/05/24 13:23:36;;;;;;;1.20;1.10;;;27.20;72.40;;;;;;5076855;28;20435;-83
2022/05/24 13:26:20;;;;;;;1.20;1.10;;;26.80;70.70;;;;;;5051492;28;20417;-85
2022/05/24 13:29:24;;;;;;;1.20;1.10;;;25.70;67.50;;;;;;5051286;28;20416;-85
2022/05/24 13:35:07;;;;;;;1.63;1.30;;;26.20;70.70;;;;;;5060321;28;20428;-85
2022/05/24 13:37:55;;;;;;;3.10;1.73;;;26.50;71.50;;;;;;5061937;28;20457;-83
2022/05/24 13:40:51;;;;;;;2.53;1.40;;;26.40;69.90;;;;;;5057597;28;20470;-84
2022/05/24 13:43:42;;;;;;;1.53;1.20;;;25.20;73.50;;;;;;5055526;28;20452;-86
2022/05/24 13:46:28;;;;;;;1.37;1.23;;;25.40;75.00;;;;;;5049414;28;20421;-83
2022/05/24 13:49:43;;;;;;;1.40;1.30;;;26.40;76.10;;;;;;5050010;28;20440;-83
2022/05/24 13:52:49;;;;;;;2.60;1.30;;;26.50;73.40;;;;;;5071565;28;20457;-83
2022/05/24 13:55:38;;;;;;;2.00;1.23;;;26.00;79.60;;;;;;5076415;28;20455;-83
2022/05/24 13:58:36;;;;;;;1.80;1.10;;;24.60;78.30;;;;;;5077403;28;20461;-84
2022/05/24 14:01:39;;;;;;;2.10;1.13;;;24.90;75.40;;;;;;5070339;28;20463;-85
2022/05/24 14:04:28;;;;;;;1.23;1.13;;;24.90;73.30;;;;;;5073480;28;20444;-84
2022/05/24 14:07:13;;;;;;;2.80;1.10;;;25.20;72.00;;;;;;5068459;28;20492;-82
2022/05/24 14:09:59;;;;;;;1.10;1.00;;;26.20;72.20;;;;;;5081087;28;20456;-85
2022/05/24 14:12:44;;;;;;;1.20;1.10;;;25.30;79.10;;;;;;5086254;28;20456;-84
2022/05/24 14:15:29;;;;;;;1.30;1.20;;;26.30;77.40;;;;;;5071619;28;20440;-84
2022/05/24 14:18:14;;;;;;;1.20;1.10;;;27.00;74.00;;;;;;5066802;28;20455;-85
2022/05/24 14:20:59;;;;;;;1.30;1.10;;;27.20;72.30;;;;;;5051235;28;20884;-85
2022/05/24 14:23:44;;;;;;;2.63;1.30;;;27.00;75.00;;;;;;5065584;28;20428;-84
2022/05/24 14:26:28;;;;;;;1.80;1.67;;;26.50;74.80;;;;;;5085573;28;20415;-83
2022/05/24 14:29:13;;;;;;;1.80;1.30;;;25.80;72.80;;;;;;5027939;28;20418;-83
2022/05/24 14:31:58;;;;;;;1.43;1.20;;;25.20;76.50;;;;;;5042894;28;20418;-84
2022/05/24 14:34:43;;;;;;;3.47;1.30;;;24.90;79.70;;;;;;5029976;28;20428;-83
2022/05/24 14:37:30;;;;;;;1.50;1.40;;;24.70;81.00;;;;;;5038707;28;20466;-83
2022/05/24 14:40:15;;;;;;;2.13;1.90;;;24.40;76.70;;;;;;5008361;28;20449;-83
2022/05/24 14:43:00;;;;;;;1.50;1.40;;;24.70;80.10;;;;;;5022665;28;20572;-82
2022/05/24 14:45:44;;;;;;;1.30;1.20;;;24.90;77.10;;;;;;5038956;28;20429;-80
2022/05/24 14:48:29;;;;;;;1.07;0.97;;;25.40;73.00;;;;;;4982862;28;20622;-82
2022/05/24 14:51:21;;;;;;;1.20;1.10;;;25.10;73.90;;;;;;5003581;28;20471;-79
2022/05/24 14:54:06;;;;;;;1.30;1.20;;;25.30;72.30;;;;;;4968685;29;20889;-79
2022/05/24 14:56:55;;;;;;;1.33;1.23;;;25.60;68.70;;;;;;4956344;29;20442;-81
2022/05/24 14:59:42;;;;;;;3.00;1.33;;;25.10;69.50;;;;;;4936444;28;20933;-81
2022/05/24 15:02:27;;;;;;;1.10;1.00;;;25.60;68.90;;;;;;4963179;28;20831;-80
2022/05/24 15:05:12;;;;;;;2.27;1.60;;;25.90;68.30;;;;;;4966629;28;20552;-81
2022/05/24 15:17:08;;;;;;;1.33;1.10;;;25.30;70.10;;;;;;4971627;28;20452;-81
2022/05/24 15:19:53;;;;;;;7.03;1.83;;;25.10;73.90;;;;;;4965687;28;20421;-82
2022/05/24 15:22:45;;;;;;;1.30;1.20;;;25.00;72.40;;;;;;4972879;28;20452;-82
2022/05/24 15:25:35;;;;;;;1.30;1.20;;;25.00;74.20;;;;;;4995999;28;20511;-82
2022/05/24 15:28:24;;;;;;;2.53;1.87;;;25.10;74.20;;;;;;5006363;28;20399;-83
2022/05/24 15:31:09;;;;;;;1.33;1.20;;;24.70;72.40;;;;;;5051298;28;20979;-80